Time;durP1;ratioP1;P1;durP2;ratioP2;P2;SDS_P1;SDS_P2;PMS_P1;PMS_P2;Temp;Humidity;BMP_temperature;BMP_pressure;BME280_temperature;BME280_humidity;BME280_pressure;Samples;Min_cycle;Max_cycle;Signal;HPM_P1;HPM_P2
2021/12/16 00:08:50;;;;;;;32.00;14.68;;;;;;;-1.07;100.00;95314.22;5095977;28;20034;-80
2021/12/16 00:33:17;;;;;;;26.42;11.82;;;;;;;-1.22;100.00;95324.22;5025051;28;20459;-80
2021/12/16 00:35:47;;;;;;;32.05;13.85;;;;;;;-1.22;100.00;95334.88;5096200;28;20024;-80
2021/12/16 00:38:14;;;;;;;26.95;12.90;;;;;;;-1.34;100.00;95328.09;5095363;28;20028;-80
2021/12/16 00:40:40;;;;;;;30.13;13.55;;;;;;;-1.38;100.00;95332.66;5076937;28;20031;-80
2021/12/16 00:43:15;;;;;;;25.85;12.77;;;;;;;-1.33;100.00;95337.59;5094953;28;20358;-80
2021/12/16 00:56:01;;;;;;;24.58;11.30;;;;;;;-1.29;100.00;95330.34;5094266;28;20476;-79
2021/12/16 00:58:34;;;;;;;27.92;13.40;;;;;;;-1.32;100.00;95330.34;5094116;28;20034;-80
2021/12/16 01:01:10;;;;;;;24.55;11.38;;;;;;;-1.31;100.00;95332.66;5094734;28;20389;-80
2021/12/16 01:49:53;;;;;;;23.73;10.30;;;;;;;-1.05;100.00;95293.25;5093805;28;20024;-81
2021/12/16 01:52:51;;;;;;;18.98;9.55;;;;;;;-1.08;100.00;95294.06;5093583;28;20081;-81
2021/12/16 01:55:34;;;;;;;20.40;9.55;;;;;;;-1.22;100.00;95287.66;5094808;28;20354;-80
2021/12/16 01:58:11;;;;;;;21.67;10.35;;;;;;;-1.08;100.00;95291.38;5076115;28;20031;-81
2021/12/16 02:01:19;;;;;;;19.50;9.30;;;;;;;-1.24;100.00;95282.00;5093305;28;20035;-81
2021/12/16 02:03:54;;;;;;;19.65;9.25;;;;;;;-1.26;100.00;95296.84;5093179;28;20031;-80
2021/12/16 02:07:25;;;;;;;19.73;10.55;;;;;;;-1.29;100.00;95287.72;5093659;28;20464;-81
2021/12/16 02:09:26;;;;;;;19.33;9.77;;;;;;;-1.24;100.00;95283.88;5081987;28;20036;-81
2021/12/16 02:12:00;;;;;;;19.90;9.98;;;;;;;-1.08;100.00;95286.06;5092978;28;20131;-81
2021/12/16 02:34:05;;;;;;;19.27;10.35;;;;;;;-1.25;100.00;95283.13;5097253;28;20471;-80
2021/12/16 02:36:39;;;;;;;19.23;9.68;;;;;;;-1.13;100.00;95289.13;5096590;28;20160;-80
2021/12/16 02:39:23;;;;;;;24.63;11.30;;;;;;;-1.14;100.00;95285.72;5097064;28;20101;-80
2021/12/16 02:41:54;;;;;;;20.08;10.50;;;;;;;-1.06;100.00;95283.78;5097045;28;20032;-80
2021/12/16 02:44:33;;;;;;;24.20;10.30;;;;;;;-1.11;100.00;95282.28;5096698;28;20039;-80
2021/12/16 02:49:47;;;;;;;23.60;11.30;;;;;;;-1.13;100.00;95289.13;5096968;28;20478;-81
2021/12/16 02:52:16;;;;;;;19.58;10.10;;;;;;;-1.28;100.00;95283.91;5078630;28;20510;-81
2021/12/16 02:54:42;;;;;;;24.45;10.82;;;;;;;-1.14;100.00;95291.06;5096523;28;20024;-81
2021/12/16 02:57:08;;;;;;;20.95;10.15;;;;;;;-1.16;100.00;95279.28;5096602;28;20041;-81
2021/12/16 02:59:34;;;;;;;22.45;11.43;;;;;;;-1.11;100.00;95286.84;5096715;28;20085;-80
2021/12/16 03:02:06;;;;;;;20.42;10.32;;;;;;;-1.07;100.00;95292.91;5096704;28;20039;-80
2021/12/16 03:04:32;;;;;;;21.48;10.35;;;;;;;-1.13;100.00;95283.81;5096915;28;20024;-79
2021/12/16 03:06:59;;;;;;;19.98;9.63;;;;;;;-1.03;100.00;95277.66;5096827;28;20036;-80
2021/12/16 03:12:33;;;;;;;18.55;9.57;;;;;;;-1.07;100.00;95287.59;5116809;28;20055;-79
2021/12/16 03:14:54;;;;;;;21.05;9.18;;;;;;;-1.10;100.00;95288.38;5096117;28;20046;-80
2021/12/16 03:17:33;;;;;;;19.23;9.63;;;;;;;-0.99;100.00;95283.72;5096500;28;20445;-79
2021/12/16 03:20:09;;;;;;;21.33;10.40;;;;;;;-1.06;100.00;95289.09;5096352;28;20373;-80
2021/12/16 03:22:58;;;;;;;19.17;9.77;;;;;;;-1.02;100.00;95290.59;5078233;28;20023;-79
2021/12/16 03:26:38;;;;;;;21.73;10.77;;;;;;;-0.96;100.00;95293.59;5078470;28;20102;-80
2021/12/16 03:37:13;;;;;;;19.55;9.80;;;;;;;-0.92;100.00;95296.25;5088057;28;20122;-79
2021/12/16 03:39:25;;;;;;;20.50;10.70;;;;;;;-0.98;100.00;95303.13;5093605;28;20047;-79
2021/12/16 03:41:50;;;;;;;20.83;9.57;;;;;;;-0.94;100.00;95296.63;5096099;28;20379;-80
2021/12/16 03:44:18;;;;;;;22.42;9.55;;;;;;;-0.93;100.00;95297.38;5079441;28;20050;-79
2021/12/16 03:46:50;;;;;;;20.00;10.05;;;;;;;-0.76;100.00;95293.81;5096683;28;20031;-81
2021/12/16 03:49:18;;;;;;;18.80;9.75;;;;;;;-0.87;100.00;95296.56;5096431;28;20397;-80
2021/12/16 03:51:57;;;;;;;19.08;10.07;;;;;;;-0.83;100.00;95290.44;5095397;28;20032;-80
2021/12/16 03:54:25;;;;;;;19.10;9.95;;;;;;;-0.76;100.00;95301.06;5078138;28;20027;-81
2021/12/16 03:56:52;;;;;;;19.02;10.07;;;;;;;-0.75;100.00;95286.56;5095650;28;20435;-80
2021/12/16 03:59:22;;;;;;;19.25;10.43;;;;;;;-0.72;100.00;95296.47;5095643;28;20480;-80
2021/12/16 04:01:49;;;;;;;20.92;10.52;;;;;;;-0.82;100.00;95294.63;5095936;28;20048;-80
2021/12/16 04:04:15;;;;;;;19.50;10.55;;;;;;;-0.71;100.00;95297.97;5095489;28;20085;-79
2021/12/16 04:06:40;;;;;;;17.48;9.02;;;;;;;-0.81;100.00;95291.56;5095827;28;20032;-80
2021/12/16 04:09:11;;;;;;;18.13;10.18;;;;;;;-0.81;100.00;95296.91;5095671;28;20340;-80
2021/12/16 04:11:49;;;;;;;19.92;10.43;;;;;;;-0.77;100.00;95291.56;5095159;28;20052;-81
2021/12/16 04:14:15;;;;;;;20.73;10.73;;;;;;;-0.69;100.00;95290.34;5095574;28;20057;-81
2021/12/16 04:16:48;;;;;;;17.45;9.55;;;;;;;-0.68;100.00;95291.88;5077375;28;20043;-81
2021/12/16 04:19:17;;;;;;;18.98;9.93;;;;;;;-0.73;100.00;95279.69;5095061;28;20501;-81
2021/12/16 04:21:48;;;;;;;20.85;9.63;;;;;;;-0.62;100.00;95287.59;5077367;28;20392;-81
2021/12/16 04:24:14;;;;;;;22.80;11.50;;;;;;;-0.66;100.00;95289.56;5095251;28;20077;-81
2021/12/16 04:26:43;;;;;;;20.00;11.10;;;;;;;-0.70;100.00;95283.50;5094957;28;20020;-81
2021/12/16 04:29:09;;;;;;;19.02;10.75;;;;;;;-0.69;100.00;95279.69;5095238;28;20028;-80
2021/12/16 04:31:36;;;;;;;19.58;9.82;;;;;;;-0.80;100.00;95284.34;5076846;28;20446;-81
2021/12/16 04:34:03;;;;;;;19.65;10.18;;;;;;;-0.70;100.00;95284.22;5094834;28;20089;-81
2021/12/16 04:36:29;;;;;;;20.92;10.45;;;;;;;-0.58;100.00;95275.00;5076690;28;20106;-82
2021/12/16 04:38:55;;;;;;;19.90;10.00;;;;;;;-0.71;100.00;95260.63;5094965;28;20112;-82
2021/12/16 04:41:22;;;;;;;21.35;10.50;;;;;;;-0.79;100.00;95264.50;5076696;28;20471;-81
2021/12/16 04:43:51;;;;;;;20.05;9.52;;;;;;;-0.81;100.00;95274.84;5093946;28;20051;-81
2021/12/16 04:46:20;;;;;;;18.38;9.82;;;;;;;-0.78;100.00;95271.38;5094506;28;20023;-82
2021/12/16 04:48:49;;;;;;;17.55;7.80;;;;;;;-0.81;100.00;95269.50;5095031;28;20028;-81
2021/12/16 04:51:15;;;;;;;19.80;10.60;;;;;;;-0.74;100.00;95272.84;5094203;28;20456;-82
2021/12/16 04:53:41;;;;;;;18.25;9.82;;;;;;;-0.68;100.00;95260.63;5094311;28;20032;-82
2021/12/16 04:56:09;;;;;;;20.05;9.93;;;;;;;-0.62;100.00;95268.94;5094436;28;20537;-82
2021/12/16 04:58:35;;;;;;;19.83;9.32;;;;;;;-0.71;100.00;95271.31;5094475;28;20077;-82
2021/12/16 05:01:01;;;;;;;19.23;9.73;;;;;;;-0.70;100.00;95270.16;5094338;28;20028;-82
2021/12/16 05:03:27;;;;;;;21.05;10.23;;;;;;;-0.81;100.00;95282.81;5094090;28;20028;-82
2021/12/16 05:05:53;;;;;;;18.77;10.00;;;;;;;-0.70;100.00;95272.81;5093892;28;20103;-81
2021/12/16 05:08:19;;;;;;;23.35;10.30;;;;;;;-0.78;100.00;95272.13;5094125;28;20103;-81
2021/12/16 05:10:45;;;;;;;20.75;9.85;;;;;;;-0.75;100.00;95271.34;5093834;28;20441;-81
2021/12/16 05:13:11;;;;;;;22.45;10.48;;;;;;;-0.57;100.00;95281.84;5093891;28;20028;-81
2021/12/16 05:15:40;;;;;;;20.75;10.73;;;;;;;-0.59;100.00;95273.47;5094421;28;20145;-81
2021/12/16 05:18:08;;;;;;;21.95;10.32;;;;;;;-0.72;100.00;95277.81;5094019;28;20016;-81
2021/12/16 05:20:42;;;;;;;22.65;11.48;;;;;;;-0.77;100.00;95267.56;5093658;28;20072;-82
2021/12/16 05:28:24;;;;;;;;;;;;;;;-0.73;100.00;95278.94;5094209;28;20027;-82
2021/12/16 05:30:52;;;;;;;21.10;10.68;;;;;;;-0.74;100.00;95278.19;5076439;28;19973;-81
2021/12/16 05:33:19;;;;;;;19.63;10.60;;;;;;;-0.75;100.00;95278.56;5076440;28;20452;-82
2021/12/16 05:35:44;;;;;;;21.00;10.05;;;;;;;-0.76;100.00;95275.16;5093622;28;20035;-81
2021/12/16 05:38:11;;;;;;;21.77;11.57;;;;;;;-0.81;100.00;95272.16;5076025;28;20088;-82
2021/12/16 05:40:37;;;;;;;21.92;10.95;;;;;;;-0.81;100.00;95282.81;5075435;28;20038;-81
2021/12/16 05:43:07;;;;;;;23.48;11.65;;;;;;;-0.84;100.00;95272.97;5093388;28;20058;-81
2021/12/16 05:45:33;;;;;;;17.58;10.02;;;;;;;-0.84;100.00;95270.28;5093696;28;20035;-83
2021/12/16 05:48:00;;;;;;;20.95;10.55;;;;;;;-0.70;100.00;95276.25;5093719;28;20055;-83
2021/12/16 05:50:30;;;;;;;21.73;11.65;;;;;;;-0.72;100.00;95272.47;5093440;28;20027;-83
2021/12/16 05:52:55;;;;;;;21.25;10.50;;;;;;;-0.80;100.00;95271.78;5093425;28;20038;-82
2021/12/16 05:55:22;;;;;;;18.02;10.15;;;;;;;-0.64;100.00;95279.25;5075594;28;20024;-81
2021/12/16 05:57:49;;;;;;;25.80;12.15;;;;;;;-0.62;100.00;95268.19;5093341;28;20119;-82
2021/12/16 06:00:26;;;;;;;20.00;10.93;;;;;;;-0.80;100.00;95279.75;5093929;28;20024;-81
2021/12/16 06:02:52;;;;;;;19.92;10.20;;;;;;;-0.64;100.00;95281.94;5094557;28;20461;-82
2021/12/16 06:05:18;;;;;;;18.83;10.80;;;;;;;-0.80;100.00;95273.69;5095687;28;20113;-82
2021/12/16 06:07:44;;;;;;;18.05;9.13;;;;;;;-0.87;100.00;95264.59;5088649;28;20421;-83
2021/12/16 06:10:28;;;;;;;17.48;10.20;;;;;;;-0.75;100.00;95281.25;5105200;28;20048;-83
2021/12/16 06:12:54;;;;;;;18.38;9.07;;;;;;;-0.79;100.00;95275.97;5077735;28;20420;-83
2021/12/16 06:15:41;;;;;;;18.88;9.88;;;;;;;-0.64;100.00;95287.25;5093581;28;20032;-84
2021/12/16 06:28:50;;;;;;;14.27;8.30;;;;;;;-0.79;100.00;95264.50;5093976;28;20480;-83
2021/12/16 06:31:16;;;;;;;17.13;8.88;;;;;;;-0.74;100.00;95267.50;5093581;28;20024;-83
2021/12/16 06:33:42;;;;;;;17.23;8.95;;;;;;;-0.74;100.00;95266.75;5093973;28;20082;-82
2021/12/16 06:36:08;;;;;;;16.25;8.68;;;;;;;-0.77;100.00;95273.63;5075326;28;20146;-83
2021/12/16 06:38:34;;;;;;;17.85;9.35;;;;;;;-0.69;100.00;95264.44;5093206;28;20106;-82
2021/12/16 06:40:59;;;;;;;14.80;9.00;;;;;;;-0.80;100.00;95271.03;5093120;28;20035;-82
2021/12/16 06:43:25;;;;;;;17.48;8.95;;;;;;;-0.68;100.00;95259.88;5093439;28;20088;-82
2021/12/16 06:45:53;;;;;;;16.40;8.13;;;;;;;-0.79;100.00;95262.63;5075272;28;20035;-83
2021/12/16 06:48:25;;;;;;;17.30;8.55;;;;;;;-0.71;100.00;95255.31;5093259;28;20491;-83
2021/12/16 06:50:59;;;;;;;14.30;7.60;;;;;;;-0.80;100.00;95255.03;5093110;28;20017;-81
2021/12/16 06:53:35;;;;;;;14.77;8.10;;;;;;;-0.71;100.00;95271.31;5092826;28;20138;-80
2021/12/16 06:56:13;;;;;;;15.65;8.13;;;;;;;-0.79;100.00;95264.50;5093005;28;20052;-81
2021/12/16 06:58:46;;;;;;;13.60;8.10;;;;;;;-0.70;100.00;95267.50;5075699;28;20101;-82
2021/12/16 07:01:26;;;;;;;13.48;8.25;;;;;;;-0.57;100.00;95273.84;5093185;28;20085;-81
2021/12/16 07:03:52;;;;;;;14.85;7.95;;;;;;;-0.52;100.00;95257.44;5093583;28;20515;-82
2021/12/16 07:06:27;;;;;;;12.13;7.40;;;;;;;-0.26;100.00;95268.63;5093087;28;20020;-81
2021/12/16 07:08:58;;;;;;;12.13;6.57;;;;;;;-0.10;100.00;95275.31;5096746;28;20123;-83
2021/12/16 07:11:25;;;;;;;13.63;7.65;;;;;;;0.17;100.00;95276.13;5096901;28;20055;-81
2021/12/16 07:14:00;;;;;;;16.05;7.43;;;;;;;0.28;100.00;95270.66;5096527;28;20032;-82
2021/12/16 07:16:28;;;;;;;12.32;7.38;;;;;;;0.04;100.00;95266.38;5096759;28;20047;-82
2021/12/16 07:18:56;;;;;;;13.88;8.18;;;;;;;0.37;100.00;95280.09;5098485;28;20043;-81
2021/12/16 07:21:23;;;;;;;12.68;6.88;;;;;;;0.27;100.00;95281.75;5097692;28;20051;-82
2021/12/16 07:23:50;;;;;;;15.45;8.50;;;;;;;0.37;100.00;95270.19;5096567;28;20450;-82
2021/12/16 07:26:16;;;;;;;12.50;7.45;;;;;;;0.68;100.00;95275.47;5096378;28;20461;-82
2021/12/16 07:28:41;;;;;;;13.70;7.38;;;;;;;0.89;100.00;95282.44;5078363;28;20039;-81
2021/12/16 07:31:08;;;;;;;11.50;6.68;;;;;;;1.05;100.00;95287.19;5078252;28;20024;-80
2021/12/16 07:33:34;;;;;;;14.55;7.72;;;;;;;1.61;100.00;95291.25;5096276;28;20023;-78
2021/12/16 07:36:00;;;;;;;14.77;7.40;;;;;;;1.85;100.00;95286.63;5096228;28;20434;-80
2021/12/16 07:38:26;;;;;;;14.48;7.75;;;;;;;1.84;100.00;95293.91;5095938;28;20026;-78
2021/12/16 07:40:53;;;;;;;11.85;6.22;;;;;;;1.75;100.00;95277.63;5095848;28;20028;-80
2021/12/16 07:43:39;;;;;;;8.07;5.05;;;;;;;1.49;100.00;95282.66;5096046;28;20050;-80
2021/12/16 07:46:05;;;;;;;9.35;6.00;;;;;;;1.93;100.00;95285.31;5096262;28;20028;-77
2021/12/16 07:48:31;;;;;;;9.60;5.38;;;;;;;1.86;100.00;95306.88;5095832;28;20465;-81
2021/12/16 07:50:59;;;;;;;8.70;4.97;;;;;;;1.61;100.00;95286.66;5095994;28;20022;-79
2021/12/16 07:53:25;;;;;;;8.65;5.05;;;;;;;1.41;100.00;95294.63;5095670;28;20461;-79
2021/12/16 07:55:50;;;;;;;11.48;5.88;;;;;;;1.43;100.00;95297.69;5095839;28;20077;-82
2021/12/16 07:58:19;;;;;;;11.82;6.10;;;;;;;1.20;100.00;95286.94;5096168;28;20043;-80
2021/12/16 08:00:45;;;;;;;14.02;5.88;;;;;;;1.39;100.00;95291.63;5095375;28;20453;-79
2021/12/16 08:03:13;;;;;;;10.52;6.25;;;;;;;1.64;100.00;95303.84;5095518;28;20113;-79
2021/12/16 08:05:44;;;;;;;7.60;4.95;;;;;;;1.12;100.00;95284.41;5095436;28;20400;-80
2021/12/16 08:08:10;;;;;;;7.35;4.78;;;;;;;0.95;100.00;95294.19;5077597;28;20032;-77
2021/12/16 08:10:36;;;;;;;7.93;4.93;;;;;;;0.75;100.00;95291.44;5077247;28;20060;-77
2021/12/16 08:13:03;;;;;;;11.20;5.18;;;;;;;0.72;100.00;95294.16;5095253;28;20053;-78
2021/12/16 08:15:28;;;;;;;10.00;5.70;;;;;;;1.05;100.00;95303.22;5095066;28;20032;-78
2021/12/16 08:17:55;;;;;;;10.88;6.20;;;;;;;1.13;100.00;95296.63;5095138;28;20039;-78
2021/12/16 08:20:22;;;;;;;10.30;5.85;;;;;;;1.11;100.00;95304.28;5076162;28;20129;-77
2021/12/16 08:22:51;;;;;;;9.40;5.90;;;;;;;0.79;100.00;95302.84;5095098;28;20028;-77
2021/12/16 08:25:20;;;;;;;10.63;6.03;;;;;;;0.78;100.00;95303.25;5094887;28;20055;-76
2021/12/16 08:27:48;;;;;;;9.57;5.47;;;;;;;0.69;100.00;95285.00;5094898;28;20386;-77
2021/12/16 08:30:16;;;;;;;9.15;5.35;;;;;;;0.67;100.00;95290.75;5095246;28;20453;-77
2021/12/16 08:32:43;;;;;;;11.05;6.70;;;;;;;0.93;100.00;95293.84;5093848;28;20034;-77
2021/12/16 08:35:10;;;;;;;14.68;6.20;;;;;;;1.03;100.00;95296.78;5077310;28;20425;-76
2021/12/16 08:37:36;;;;;;;9.02;5.35;;;;;;;0.97;100.00;95297.22;5094613;28;20078;-77
2021/12/16 08:40:04;;;;;;;9.70;5.63;;;;;;;1.04;100.00;95287.56;5093612;28;20173;-78
2021/12/16 08:42:31;;;;;;;10.02;5.30;;;;;;;0.86;100.00;95291.28;5094737;28;20067;-77
2021/12/16 08:44:57;;;;;;;10.90;5.70;;;;;;;0.72;100.00;95294.88;5076928;28;20468;-73
2021/12/16 08:47:23;;;;;;;9.35;5.40;;;;;;;0.82;100.00;95282.56;5097125;28;20062;-81
2021/12/16 08:49:49;;;;;;;8.85;5.47;;;;;;;0.78;100.00;95285.28;5098138;28;20027;-81
2021/12/16 08:52:19;;;;;;;9.63;5.70;;;;;;;0.90;100.00;95286.66;5096571;28;20040;-81
2021/12/16 08:54:45;;;;;;;10.85;5.97;;;;;;;0.79;100.00;95278.00;5095934;28;20028;-81
2021/12/16 08:57:11;;;;;;;9.30;5.50;;;;;;;0.81;100.00;95287.13;5098055;28;20089;-79
2021/12/16 08:59:37;;;;;;;10.40;5.43;;;;;;;0.64;100.00;95278.22;5080607;28;20035;-80
2021/12/16 09:02:04;;;;;;;8.63;5.28;;;;;;;0.72;100.00;95254.81;5080699;28;20024;-80
2021/12/16 09:04:30;;;;;;;11.40;5.45;;;;;;;0.78;100.00;95261.22;5083358;28;20389;-80
2021/12/16 09:07:00;;;;;;;7.63;4.88;;;;;;;0.95;100.00;95267.44;5106822;28;20030;-81
2021/12/16 09:09:31;;;;;;;11.32;5.53;;;;;;;1.02;100.00;95253.22;5100986;28;20016;-80
2021/12/16 09:12:13;;;;;;;12.18;5.25;;;;;;;1.17;100.00;95265.22;5094906;28;20105;-80
2021/12/16 09:14:41;;;;;;;7.60;4.68;;;;;;;1.21;100.00;95256.38;5094535;28;20100;-82
2021/12/16 09:17:10;;;;;;;8.82;4.72;;;;;;;1.21;100.00;95265.16;5094230;28;20131;-82
2021/12/16 09:19:46;;;;;;;8.70;5.28;;;;;;;1.20;100.00;95268.22;5076238;28;20027;-81
2021/12/16 09:22:15;;;;;;;10.45;6.03;;;;;;;1.44;100.00;95264.38;5076068;28;20020;-81
2021/12/16 09:24:42;;;;;;;14.82;5.03;;;;;;;1.52;100.00;95251.66;5093889;28;20024;-81
2021/12/16 09:27:08;;;;;;;8.88;4.30;;;;;;;1.45;100.00;95255.19;5093835;28;20023;-81
2021/12/16 09:29:34;;;;;;;8.20;4.13;;;;;;;1.39;100.00;95242.72;5093840;28;20008;-81
2021/12/16 09:32:02;;;;;;;9.95;4.97;;;;;;;1.33;100.00;95256.53;5093515;28;20020;-81
2021/12/16 09:34:29;;;;;;;8.30;4.95;;;;;;;1.44;100.00;95251.00;5075549;28;20088;-81
2021/12/16 09:36:54;;;;;;;7.50;4.65;;;;;;;1.38;100.00;95241.97;5093519;28;20084;-81
2021/12/16 09:39:24;;;;;;;11.57;4.60;;;;;;;1.35;100.00;95245.47;5075669;28;20114;-81
2021/12/16 09:41:51;;;;;;;6.88;4.43;;;;;;;1.17;100.00;95246.50;5093915;28;20052;-81
2021/12/16 09:44:18;;;;;;;7.20;4.63;;;;;;;1.45;100.00;95249.09;5094118;28;20024;-82
2021/12/16 09:46:48;;;;;;;9.82;4.32;;;;;;;1.22;100.00;95250.63;5094140;28;20092;-81
2021/12/16 09:49:15;;;;;;;8.23;4.88;;;;;;;1.28;100.00;95253.59;5093567;28;20020;-80
2021/12/16 09:51:43;;;;;;;8.75;4.95;;;;;;;1.24;100.00;95247.53;5093695;28;20028;-81
2021/12/16 09:54:12;;;;;;;9.82;5.10;;;;;;;1.29;100.00;95249.75;5093684;28;20039;-81
2021/12/16 09:56:42;;;;;;;7.22;4.63;;;;;;;1.29;100.00;95239.06;5093241;28;20024;-81
2021/12/16 09:59:10;;;;;;;8.13;4.38;;;;;;;1.05;100.00;95244.41;5093373;28;20134;-80
2021/12/16 10:01:37;;;;;;;7.20;4.40;;;;;;;1.15;100.00;95240.78;5075355;28;20024;-80
2021/12/16 10:04:06;;;;;;;6.43;4.13;;;;;;;1.21;100.00;95238.41;5093459;28;20024;-80
2021/12/16 10:06:34;;;;;;;7.07;4.60;;;;;;;1.22;100.00;95223.13;5093453;28;20060;-81
2021/12/16 10:09:00;;;;;;;12.02;5.30;;;;;;;1.45;100.00;95217.75;5093709;28;20398;-82
2021/12/16 10:11:28;;;;;;;10.77;5.97;;;;;;;1.40;100.00;95226.25;5093181;28;20040;-80
2021/12/16 10:19:06;;;;;;;12.35;5.63;;;;;;;1.72;100.00;95216.91;5093457;28;20058;-80
2021/12/16 10:21:32;;;;;;;8.55;5.60;;;;;;;1.65;100.00;95222.34;5093682;28;20103;-83
2021/12/16 10:23:58;;;;;;;17.92;10.05;;;;;;;1.63;100.00;95205.97;5077371;28;20082;-80
2021/12/16 10:26:25;;;;;;;23.80;12.98;;;;;;;1.66;100.00;95202.47;5082062;28;20024;-80
2021/12/16 10:28:57;;;;;;;8.63;4.88;;;;;;;1.67;100.00;95203.97;5096063;28;20024;-80
2021/12/16 10:31:30;;;;;;;8.25;4.07;;;;;;;1.61;100.00;95202.94;5076978;28;20024;-79
2021/12/16 10:33:58;;;;;;;7.30;4.10;;;;;;;1.70;100.00;95189.78;5095447;28;20105;-80
2021/12/16 10:36:25;;;;;;;6.97;4.47;;;;;;;1.61;100.00;95192.22;5094995;28;20124;-80
2021/12/16 10:39:17;;;;;;;9.68;4.38;;;;;;;1.57;100.00;95183.53;5098863;28;20024;-81
2021/12/16 10:41:58;;;;;;;8.15;4.93;;;;;;;1.65;100.00;95188.34;5104284;28;20028;-82
2021/12/16 10:44:27;;;;;;;12.40;5.18;;;;;;;1.58;100.00;95191.16;5112792;28;20088;-81
2021/12/16 10:47:01;;;;;;;6.88;4.18;;;;;;;1.62;100.00;95191.06;5114662;28;20088;-82
2021/12/16 10:49:35;;;;;;;10.40;4.45;;;;;;;1.44;100.00;95172.69;5094011;28;20050;-80
2021/12/16 10:52:09;;;;;;;7.40;4.35;;;;;;;1.38;100.00;95182.34;5113929;28;20032;-78
2021/12/16 10:54:44;;;;;;;5.78;3.83;;;;;;;1.31;100.00;95175.19;5114568;28;20047;-80
2021/12/16 10:57:11;;;;;;;12.45;4.55;;;;;;;1.27;100.00;95185.19;5117063;28;20104;-79
2021/12/16 10:59:51;;;;;;;7.65;5.00;;;;;;;1.42;100.00;95189.16;5115773;28;20070;-81
2021/12/16 11:02:22;;;;;;;13.45;6.15;;;;;;;1.44;100.00;95192.16;5114291;28;20081;-82
2021/12/16 11:04:53;;;;;;;12.68;7.18;;;;;;;1.14;100.00;95183.13;5103257;28;20031;-81
2021/12/16 11:07:39;;;;;;;14.13;7.53;;;;;;;1.02;100.00;95173.00;5098675;28;20032;-82
2021/12/16 11:10:10;;;;;;;11.75;7.00;;;;;;;0.94;100.00;95172.41;5097276;28;20507;-82
2021/12/16 11:12:49;;;;;;;14.15;6.32;;;;;;;0.86;100.00;95173.69;5098282;28;20116;-82
2021/12/16 11:15:34;;;;;;;10.65;6.22;;;;;;;0.96;100.00;95177.34;5097281;28;20039;-82
2021/12/16 11:18:11;;;;;;;12.65;7.22;;;;;;;0.96;100.00;95169.31;5096810;28;20024;-82
2021/12/16 11:20:39;;;;;;;11.00;6.57;;;;;;;0.94;100.00;95166.28;5097272;28;20066;-82
2021/12/16 11:23:06;;;;;;;10.30;6.28;;;;;;;1.03;100.00;95169.19;5078293;28;20444;-84
2021/12/16 11:25:37;;;;;;;14.07;5.78;;;;;;;1.00;100.00;95170.00;5096196;28;20457;-78
2021/12/16 11:28:35;;;;;;;12.27;6.97;;;;;;;0.91;100.00;95167.09;5096278;28;20016;-78
2021/12/16 11:31:08;;;;;;;11.70;6.68;;;;;;;1.05;100.00;95176.78;5092501;28;20491;-77
2021/12/16 11:33:38;;;;;;;11.50;5.70;;;;;;;0.99;100.00;95163.16;5096103;28;20028;-76
2021/12/16 11:36:17;;;;;;;8.00;5.10;;;;;;;0.95;100.00;95162.44;5096578;28;20020;-77
2021/12/16 11:39:02;;;;;;;8.55;5.03;;;;;;;1.05;100.00;95166.88;5096310;28;20031;-77
2021/12/16 11:41:40;;;;;;;8.50;5.25;;;;;;;1.18;100.00;95175.03;5097013;28;20392;-78
2021/12/16 11:44:13;;;;;;;19.85;9.60;;;;;;;1.21;100.00;95173.47;5096485;28;20024;-78
2021/12/16 11:47:02;;;;;;;13.63;6.72;;;;;;;1.01;100.00;95172.28;5096603;28;20093;-79
2021/12/16 11:49:43;;;;;;;9.23;5.63;;;;;;;1.01;100.00;95171.53;5077964;28;20032;-79
2021/12/16 11:52:11;;;;;;;11.32;6.50;;;;;;;1.27;100.00;95177.94;5096601;28;20034;-78
2021/12/16 11:54:53;;;;;;;12.27;6.88;;;;;;;1.00;100.00;95173.44;5078736;28;20483;-77
2021/12/16 11:57:31;;;;;;;11.00;6.82;;;;;;;1.02;100.00;95175.69;5096333;28;20089;-78
2021/12/16 11:59:58;;;;;;;13.15;7.50;;;;;;;0.93;100.00;95170.13;5078937;28;20461;-78
2021/12/16 12:02:38;;;;;;;11.85;7.13;;;;;;;0.82;100.00;95160.38;5098743;28;20024;-79
2021/12/16 12:05:23;;;;;;;11.27;6.38;;;;;;;0.75;100.00;95165.06;5110969;28;20078;-78
2021/12/16 12:07:54;;;;;;;12.48;7.35;;;;;;;0.72;100.00;95161.28;5103950;28;20047;-78
2021/12/16 12:10:50;;;;;;;13.85;7.25;;;;;;;0.73;100.00;95162.06;5078260;28;20043;-78
2021/12/16 12:13:17;;;;;;;11.20;6.90;;;;;;;0.57;100.00;95152.72;5095429;28;20027;-77
2021/12/16 12:15:53;;;;;;;13.48;7.15;;;;;;;0.47;100.00;95159.75;5077656;28;20492;-76
2021/12/16 12:18:42;;;;;;;13.98;7.40;;;;;;;0.55;100.00;95162.34;5078237;28;20381;-76
2021/12/16 12:21:32;;;;;;;11.73;6.68;;;;;;;0.60;100.00;95161.84;5095547;28;20024;-77
2021/12/16 12:24:19;;;;;;;12.02;6.90;;;;;;;0.67;100.00;95153.75;5095053;28;20472;-79
2021/12/16 12:26:56;;;;;;;17.08;7.93;;;;;;;0.70;100.00;95157.53;5095463;28;20074;-79
2021/12/16 12:29:29;;;;;;;13.23;7.50;;;;;;;0.55;100.00;95151.66;5095291;28;20081;-79
2021/12/16 12:32:08;;;;;;;16.13;8.65;;;;;;;0.63;100.00;95163.75;5094996;28;20020;-79
2021/12/16 12:34:36;;;;;;;14.43;8.07;;;;;;;0.61;100.00;95158.03;5094835;28;20028;-78
2021/12/16 12:37:07;;;;;;;13.73;7.63;;;;;;;0.55;100.00;95159.66;5095451;28;20084;-81
2021/12/16 12:39:39;;;;;;;13.23;7.45;;;;;;;0.45;100.00;95153.28;5094772;28;20035;-77
2021/12/16 12:42:11;;;;;;;13.82;8.00;;;;;;;0.48;100.00;95163.19;5077025;28;20028;-77
2021/12/16 12:44:37;;;;;;;;;;;;;;;0.61;100.00;95174.06;5095395;28;20020;-77
2021/12/16 12:47:05;;;;;;;15.10;7.72;;;;;;;0.55;100.00;95178.38;5094994;28;19918;-76
2021/12/16 12:49:31;;;;;;;11.68;7.18;;;;;;;0.50;100.00;95185.69;5096390;28;20060;-76
2021/12/16 12:52:14;;;;;;;12.65;7.57;;;;;;;0.59;100.00;95173.72;5094717;28;20020;-77
2021/12/16 12:54:42;;;;;;;14.70;9.05;;;;;;;0.57;100.00;95174.09;5077164;28;20024;-78
2021/12/16 12:57:29;;;;;;;18.67;9.23;;;;;;;0.62;100.00;95170.22;5094953;28;20019;-79
2021/12/16 12:59:56;;;;;;;40.15;9.65;;;;;;;0.62;100.00;95168.31;5094930;28;20124;-79
2021/12/16 13:02:29;;;;;;;17.67;9.57;;;;;;;0.60;100.00;95159.19;5094795;28;20020;-78
2021/12/16 13:05:19;;;;;;;14.98;8.18;;;;;;;0.56;100.00;95159.25;5076279;28;20085;-77
2021/12/16 13:07:54;;;;;;;14.05;8.40;;;;;;;0.55;100.00;95151.66;5082809;28;20460;-78
2021/12/16 13:10:24;;;;;;;15.05;7.97;;;;;;;0.50;100.00;95156.28;5094065;28;20040;-81
2021/12/16 13:13:13;;;;;;;15.23;8.00;;;;;;;0.42;100.00;95154.84;5076515;28;20157;-82
2021/12/16 13:26:43;;;;;;;16.63;9.25;;;;;;;0.62;100.00;95168.31;5094932;28;20468;-82
2021/12/16 13:32:22;;;;;;;18.42;9.52;;;;;;;0.66;100.00;95168.25;5071020;28;20503;-83
2021/12/16 13:35:11;;;;;;;18.52;8.88;;;;;;;0.47;100.00;95157.06;5094625;28;20024;-82
2021/12/16 13:37:42;;;;;;;14.57;8.50;;;;;;;0.48;100.00;95160.53;5076292;28;20042;-82
2021/12/16 13:40:24;;;;;;;16.13;9.27;;;;;;;0.60;100.00;95159.19;5094274;28;20050;-83
2021/12/16 13:42:56;;;;;;;12.48;7.93;;;;;;;0.58;100.00;95158.84;5094192;28;20043;-83
2021/12/16 13:45:39;;;;;;;17.90;9.52;;;;;;;0.81;100.00;95163.44;5076213;28;20024;-82
2021/12/16 14:07:59;;;;;;;17.33;9.05;;;;;;;0.54;100.00;95171.50;5093887;28;20020;-81
2021/12/16 14:10:58;;;;;;;17.75;10.25;;;;;;;0.41;100.00;95180.06;5094105;28;20052;-81
2021/12/16 14:16:37;;;;;;;19.65;10.07;;;;;;;0.44;100.00;95183.84;5093514;28;20059;-82
2021/12/16 14:49:41;;;;;;;16.92;9.77;;;;;;;0.25;100.00;95187.94;5094707;28;20077;-79
2021/12/16 14:52:15;;;;;;;17.05;9.35;;;;;;;0.23;100.00;95191.00;5094454;28;20020;-80
2021/12/16 14:54:56;;;;;;;16.38;9.40;;;;;;;0.30;100.00;95190.13;5094328;28;20063;-81
2021/12/16 14:57:26;;;;;;;18.88;9.95;;;;;;;0.36;100.00;95187.78;5095392;28;20020;-82
2021/12/16 14:59:53;;;;;;;16.40;9.95;;;;;;;0.17;100.00;95182.66;5094448;28;20464;-82
2021/12/16 15:02:24;;;;;;;17.10;9.85;;;;;;;0.23;100.00;95182.22;5099855;28;20028;-82
2021/12/16 15:04:49;;;;;;;18.00;9.93;;;;;;;0.19;100.00;95194.88;5108178;28;20027;-80
2021/12/16 15:07:15;;;;;;;19.35;9.77;;;;;;;0.15;100.00;95187.69;5106090;28;20047;-82
2021/12/16 15:09:42;;;;;;;19.30;10.23;;;;;;;0.16;100.00;95193.75;5096353;28;20016;-81